Latest Coastal Weather Observations for Lord Howe Island

IDN60701

Issued at 12:11 pm EST Wednesday 27 May 2015 (issued every 10 minutes, with the page automatically refreshed every 10 minutes)

About coastal observations | Map of coastal stations | Coastal observations for NSW | Marine services | Other Formats
Station Details ID: 200839 Name: LORD HOWE ISLAND AERO Lat: -31.54 Lon: 159.08 Height: 5.0 m
Data from the previous 72 hours. | See also: Recent months at Lord Howe Island
Date/Time
EST
Temp

°C
Wind Pressure Rain
since 9am
mm
Weather Cloud Vis
km
Sea
Height
m
Swell
Dir
 
Speed
knots
Gust
knots
hPa Trend Height
m
Period
s
Dir
27/11:30am 20.2 W 3 5 1023.4 R 0.0 Fine Mostly cloudy 30 - - - -
27/11:00am 18.3 NW 3 5 1023.8 - 0.0 - Mostly clear 10 - - - -
27/10:30am 17.9 S 3 4 1024.3 - 0.0 - Mostly clear 10 - - - -
27/10:00am 18.1 SSW 3 4 1024.6 - 0.0 Rain Mostly clear 10 - - - -
27/09:30am 18.0 SW 1 4 1024.6 - 0.0 - Partly cloudy 10 - - - -
27/09:00am 17.5 WSW 1 3 1024.5 - 0.0 - Mostly clear 10 - - - -
27/08:30am 17.0 NW 1 5 1024.6 R 12.4 Distant precip. Mostly cloudy 25 - - - -
27/08:00am 16.6 CALM 0 3 1024.2 - 12.4 - Mostly clear 10 - - - -
27/07:30am 16.2 S 2 4 1024.2 - 12.2 - Mostly clear 10 - - - -
27/07:00am 15.8 ESE 2 4 1023.9 - 12.2 Showers Partly cloudy 10 - - - -
27/06:30am 15.9 ESE 3 5 1023.9 - 12.0 Showers Mostly clear 10 - - - -
27/05:59am 16.1 S 5 11 1023.7 - 11.0 Showers Mostly clear 3 - - - -
27/05:42am 17.8 ESE 5 10 1023.2 - 6.0 Showers Partly cloudy 4 - - - -
27/05:30am 18.7 SE 4 5 1023.1 F 5.6 Fine Mostly cloudy 25 - - - -
27/05:00am 19.3 WSW 10 13 1022.9 - 5.6 - Partly cloudy 10 - - - -
27/04:30am 19.3 WSW 8 12 1022.8 - 5.6 - - 10 - - - -
27/04:00am 18.8 SW 7 11 1022.8 - 5.6 - Partly cloudy 10 - - - -
27/03:30am 14.8 S 3 5 1022.7 - 5.6 - Partly cloudy 10 - - - -
27/03:00am 14.7 E 1 4 1023.1 - 5.6 - - 10 - - - -
27/02:30am 14.9 ENE 2 4 1023.1 - 5.6 - - 10 - - - -
27/02:00am 17.6 SE 2 4 1023.1 - 5.6 - - 10 - - - -
27/01:30am 17.1 SSE 1 5 1023.6 - 5.6 - Partly cloudy 10 - - - -
27/01:00am 16.7 S 5 7 1023.7 - 5.6 - Partly cloudy 10 - - - -
27/12:30am 15.2 CALM 0 0 1023.8 - 5.6 - - 10 - - - -
27/12:00am 16.3 S 1 5 1023.9 - 5.6 - Partly cloudy 10 - - - -
 
Date/Time
EST
Temp

°C
Wind Pressure Rain
since 9am
mm
Weather Cloud Vis
km
Sea
Height
m
Swell
Dir
 
Speed
knots
Gust
knots
hPa Trend Height
m
Period
s
Dir
26/11:30pm 17.2 S 3 5 1024.1 - 5.6 - Mostly clear 10 - - - -
26/11:00pm 18.1 SSE 4 8 1024.2 - 5.6 - Partly cloudy 10 - - - -
26/10:30pm 17.5 SSE 4 7 1024.4 - 5.6 - Partly cloudy 10 - - - -
26/10:00pm 17.5 SSE 4 6 1024.7 - 5.6 - Partly cloudy 10 - - - -
26/09:30pm 17.4 S 4 6 1024.8 - 5.6 - Partly cloudy 10 - - - -
26/09:00pm 16.4 SSE 1 4 1024.9 - 5.6 - Partly cloudy 10 - - - -
26/08:30pm 17.6 S 3 5 1024.9 - 5.6 - Mostly clear 10 - - - -
26/08:00pm 16.8 SSE 3 5 1025.0 - 5.6 - Partly cloudy 10 - - - -
26/07:30pm 19.1 WSW 11 15 1024.9 - 5.6 - Partly cloudy 10 - - - -
26/07:00pm 18.1 SSW 7 10 1025.1 - 5.6 - Partly cloudy 10 - - - -
26/06:30pm 17.8 SSW 7 11 1025.0 - 5.6 - Partly cloudy 10 - - - -
26/06:00pm 16.7 S 4 5 1024.9 - 5.6 - Partly cloudy 10 - - - -
26/05:30pm 17.7 SSW 7 11 1024.8 - 5.6 - Cloudy 10 - - - -
26/05:00pm 16.2 SSW 4 5 1024.7 - 5.6 - Partly cloudy 10 - - - -
26/04:46pm 16.3 S 5 6 1024.8 - 5.6 - Partly cloudy 10 - - - -
26/04:30pm 16.8 WSW 8 12 1024.7 - 5.6 - Partly cloudy 4 - - - -
26/04:27pm 17.1 WSW 11 12 1024.8 - 5.0 - Partly cloudy 6 - - - -
26/04:00pm 17.7 SW 4 5 1024.7 - 4.0 - - 10 - - - -
26/03:30pm 18.4 WNW 2 4 1024.9 - 4.0 - Partly cloudy 10 - - - -
26/03:06pm 17.3 S 3 4 1025.1 - 4.0 - Partly cloudy 10 - - - -
26/03:00pm 16.7 S 4 7 1025.1 - 4.0 - Partly cloudy 10 - - - -
26/02:48pm 16.6 SSW 8 11 1025.3 - 3.6 - Partly cloudy 6 - - - -
26/02:30pm 17.7 SSW 4 7 1025.2 F 3.4 Showers Mostly cloudy 8 - - - -
26/02:10pm 16.5 S 9 13 1025.4 - 2.4 Showers Mostly clear 3 - - - -
26/02:00pm 16.9 S 10 14 1025.3 - 2.2 Showers Mostly clear 10 - - - -
26/01:30pm 19.3 N 6 12 1025.4 - 2.2 Showers Mostly clear 10 - - - -
26/01:00pm 19.9 N 5 7 1025.6 - 2.2 - Mostly cloudy 10 - - - -
26/12:30pm 19.8 N 6 10 1026.2 - 2.2 - Mostly clear 10 - - - -
26/12:00pm 19.0 NE 5 7 1026.5 - 2.2 - Mostly clear 10 - - - -
26/11:30am 17.4 S 2 5 1027.3 R 2.2 Distant precip. Mostly cloudy 25 - - - -
26/11:00am 16.7 WNW 4 6 1028.1 - 0.8 Showers Mostly clear 4 - - - -
26/10:30am 18.5 WNW 4 9 1028.3 - 0.4 Drizzle Mostly clear 9 - - - -
26/10:00am 18.5 W 6 9 1028.4 - 0.2 Showers Mostly clear 10 - - - -
26/09:30am 17.6 W 6 9 1028.7 - 0.0 Showers Partly cloudy 10 - - - -
26/09:22am 18.0 W 11 14 1028.6 - 0.0 Showers Partly cloudy 4 - - - -
26/09:00am 18.9 E 5 7 1028.5 - 0.0 - Mostly clear 10 - - - -
26/08:30am 19.2 NE 7 9 1028.5 F 0.0 Distant precip. Mostly cloudy 25 - - - -
26/08:00am 19.0 NE 7 9 1028.5 - 0.0 - Mostly clear 10 - - - -
26/07:30am 18.8 NE 7 10 1028.5 - 0.0 - Partly cloudy 10 - - - -
26/07:00am 18.4 ENE 5 6 1028.6 - 0.0 - Mostly clear 10 - - - -
26/06:30am 18.4 ENE 7 9 1028.4 - 0.0 - Mostly clear 10 - - - -
26/06:00am 18.1 E 6 8 1028.3 - 0.0 - Mostly clear 10 - - - -
26/05:30am 16.5 ESE 3 5 1028.1 F 0.0 Fine Mostly cloudy 25 - - - -
26/05:00am 17.1 ESE 4 5 1028.1 - 0.0 - Cloudy 10 - - - -
26/04:30am 16.9 SE 4 5 1028.0 - 0.0 - Cloudy 10 - - - -
26/04:00am 16.2 ESE 1 5 1028.2 - 0.0 - Cloudy 10 - - - -
26/03:30am 17.7 SE 3 6 1028.1 - 0.0 - Partly cloudy 10 - - - -
26/03:00am 17.2 SE 5 6 1028.2 - 0.0 - Partly cloudy 10 - - - -
26/02:30am 17.8 SE 5 6 1028.3 - 0.0 - Partly cloudy 10 - - - -
26/02:00am 17.9 SSE 5 8 1028.8 - 0.0 - Partly cloudy 10 - - - -
26/01:30am 17.6 SE 5 6 1028.6 - 0.0 - - 10 - - - -
26/01:00am 17.5 SE 5 6 1029.0 - 0.0 - - 10 - - - -
26/12:30am 18.0 SE 5 7 1029.2 - 0.0 - Partly cloudy 10 - - - -
26/12:00am 18.4 ESE 6 9 1029.6 - 0.0 - Cloudy 10 - - - -
 
Date/Time
EST
Temp

°C
Wind Pressure Rain
since 9am
mm
Weather Cloud Vis
km
Sea
Height
m
Swell
Dir
 
Speed
knots
Gust
knots
hPa Trend Height
m
Period
s
Dir
25/11:30pm 18.4 SE 6 7 1029.4 - 0.0 - Partly cloudy 10 - - - -
25/11:00pm 18.6 SE 6 7 1029.3 - 0.0 - Partly cloudy 10 - - - -
25/10:30pm 18.1 SSE 3 5 1029.7 - 0.0 - Cloudy 10 - - - -
25/10:00pm 17.7 SE 1 4 1029.4 - 0.0 - Partly cloudy 10 - - - -
25/09:30pm 18.1 SE 4 6 1029.2 - 0.0 - Cloudy 10 - - - -
25/09:00pm 18.4 ESE 4 7 1029.3 - 0.0 - Cloudy 10 - - - -
25/08:30pm 17.3 SSE 3 4 1029.5 - 0.0 - Cloudy 10 - - - -
25/08:00pm 17.0 SSE 4 6 1029.8 - 0.0 - Partly cloudy 10 - - - -
25/07:30pm 17.5 S 3 4 1029.7 - 0.0 - Cloudy 10 - - - -
25/07:00pm 18.1 SE 5 8 1029.5 - 0.0 - Partly cloudy 10 - - - -
25/06:30pm 17.9 SE 5 8 1029.7 - 0.0 - Partly cloudy 10 - - - -
25/06:00pm 17.4 SSE 3 6 1029.5 - 0.0 - Partly cloudy 10 - - - -
25/05:30pm 16.4 S 4 7 1029.2 - 0.0 - Mostly cloudy 10 - - - -
25/05:00pm 17.3 S 7 14 1029.1 - 0.0 - Partly cloudy 8 - - - -
25/04:30pm 17.8 S 4 5 1028.7 - 0.0 - Partly cloudy 10 - - - -
25/04:00pm 18.5 S 3 5 1028.4 - 0.0 - Partly cloudy 10 - - - -
25/03:30pm 18.7 SE 2 5 1028.1 - 0.0 - Partly cloudy 10 - - - -
25/03:00pm 18.9 ESE 6 10 1028.5 - 0.0 - Partly cloudy 10 - - - -
25/02:30pm 18.9 ESE 9 15 1028.2 F 0.0 Fine Mostly cloudy 30 - - - -
25/02:00pm 20.3 ESE 9 13 1028.5 - 0.0 - Partly cloudy 10 - - - -
25/01:30pm 20.4 E 8 13 1028.5 - 0.0 - Mostly clear 10 - - - -
25/01:00pm 20.1 SE 6 11 1028.7 - 0.0 - Mostly clear 10 - - - -
25/12:30pm 20.6 SSW 4 7 1029.0 - 0.0 - Mostly clear 10 - - - -
25/12:00pm 20.1 SSW 5 9 1029.4 - 0.0 - Mostly clear 10 - - - -
25/11:30am 19.6 SW 7 13 1029.7 R 0.0 Fine Mostly cloudy 30 - - - -
25/11:00am 19.6 SW 7 12 1029.9 - 0.0 - Mostly clear 10 - - - -
25/10:30am 19.5 SSW 6 11 1030.2 - 0.0 - Mostly clear 10 - - - -
25/10:00am 20.0 SSW 4 8 1030.6 - 0.0 - Mostly clear 10 - - - -
25/09:30am 19.5 W 9 14 1030.6 - 0.0 - Mostly clear 10 - - - -
25/09:00am 19.4 SW 7 12 1030.5 - 0.0 - Mostly clear 10 - - - -
25/08:30am 19.1 SSW 6 11 1030.2 R 2.6 Fine Mostly cloudy 30 - - - -
25/08:00am 18.3 SSW 6 11 1030.1 - 2.6 - Partly cloudy 10 - - - -
25/07:30am 17.9 SSW 7 13 1030.1 - 2.6 - Mostly clear 10 - - - -
25/07:00am 16.9 ESE 6 14 1029.9 - 2.6 Showers Mostly clear 10 - - - -
25/06:30am 16.5 S 4 8 1029.7 - 2.6 Showers Mostly clear 2 - - - -
25/06:00am 16.2 SE 5 8 1029.5 - 2.6 Showers Partly cloudy 2 - - - -
25/05:30am 17.4 SSW 10 15 1029.0 R 2.2 Showers Mostly cloudy 20 - - - -
25/05:00am 17.9 SE 5 8 1028.7 - 2.2 - Partly cloudy 10 - - - -
25/04:30am 18.3 SSE 5 9 1028.6 - 2.2 - Partly cloudy 10 - - - -
25/04:00am 18.2 S 5 9 1028.3 - 2.2 - Partly cloudy 10 - - - -
25/03:30am 17.7 SSW 5 8 1028.2 - 2.2 - Partly cloudy 10 - - - -
25/03:00am 17.7 SSW 7 15 1028.2 - 2.2 - Partly cloudy 10 - - - -
25/02:30am 18.0 S 7 13 1028.2 - 2.2 - Cloudy 10 - - - -
25/02:00am 18.0 SSW 11 19 1028.2 - 2.2 - Partly cloudy 10 - - - -
25/01:30am 18.0 S 6 13 1028.2 - 2.2 - Partly cloudy 10 - - - -
25/01:00am 18.2 SSE 5 10 1028.2 - 2.2 - Partly cloudy 10 - - - -
25/12:30am 18.0 S 7 17 1028.3 - 2.2 - - 10 - - - -
25/12:00am 18.2 S 6 17 1028.1 - 2.2 - Partly cloudy 10 - - - -
 
Date/Time
EST
Temp

°C
Wind Pressure Rain
since 9am
mm
Weather Cloud Vis
km
Sea
Height
m
Swell
Dir
 
Speed
knots
Gust
knots
hPa Trend Height
m
Period
s
Dir
24/11:30pm 17.4 ESE 9 15 1028.1 - 2.2 - Mostly clear 10 - - - -
24/11:00pm 16.7 ESE 7 11 1028.4 - 2.2 - Partly cloudy 10 - - - -
24/10:30pm 16.5 SSW 11 17 1028.4 - 2.2 - Partly cloudy 10 - - - -
24/10:00pm 17.1 SSE 6 11 1028.4 - 2.0 - Partly cloudy 10 - - - -
24/09:30pm 16.5 SE 5 8 1028.4 - 2.0 - Partly cloudy 10 - - - -
24/09:00pm 17.3 SE 6 10 1028.3 - 1.6 - Partly cloudy 10 - - - -
24/08:30pm 17.1 S 6 10 1028.2 - 1.6 - Cloudy 10 - - - -
24/08:17pm 17.3 SSW 8 14 1028.2 - 1.6 - Partly cloudy 10 - - - -
24/08:01pm 16.5 SSE 8 15 1028.1 - 1.6 - Partly cloudy 6 - - - -
24/08:00pm 16.6 SSE 8 15 1028.1 - 1.6 - Partly cloudy 7 - - - -
24/07:30pm 17.1 SSW 7 13 1027.7 - 1.4 - Partly cloudy 10 - - - -
24/07:00pm 17.8 SSW 7 14 1027.5 - 1.4 - Partly cloudy 10 - - - -
24/06:30pm 17.1 S 6 11 1027.3 - 1.2 - Partly cloudy 10 - - - -
24/06:00pm 17.3 S 6 11 1026.9 - 1.2 - Partly cloudy 10 - - - -
24/05:30pm 16.3 SE 3 6 1026.6 - 1.2 - Cloudy 10 - - - -
24/05:00pm 17.4 SSW 5 7 1026.3 - 0.6 - Partly cloudy 10 - - - -
24/04:30pm 17.5 SSW 9 14 1026.0 - 0.6 - Partly cloudy 10 - - - -
24/04:00pm 18.1 SSW 9 21 1025.9 - 0.6 - Partly cloudy 10 - - - -
24/03:30pm 18.0 SSW 8 13 1025.7 - 0.6 - Partly cloudy 10 - - - -
24/03:10pm 18.5 SSW 9 15 1025.6 - 0.6 - Partly cloudy 10 - - - -
24/03:00pm 18.1 SW 11 18 1025.5 - 0.6 - Partly cloudy 5 - - - -
24/02:52pm 17.7 SW 11 20 1025.5 - 0.6 - Partly cloudy 6 - - - -
24/02:30pm 18.9 SSW 9 13 1025.2 R 0.6 Fine Partly cloudy 25 - - - -
24/02:00pm 20.1 SSW 9 14 1025.1 - 0.6 - - 10 - - - -
24/01:30pm 20.2 SSW 8 12 1025.0 - 0.6 - - 10 - - - -
24/01:00pm 19.7 SSW 7 14 1025.0 - 0.6 - Partly cloudy 10 - - - -
24/12:30pm 18.2 S 6 10 1025.2 - 0.6 - Partly cloudy 10 - - - -
24/12:00pm 19.6 SSW 9 17 1025.1 - 0.2 - Partly cloudy 10 - - - -

Other Formats:

Comma delimited format used in spreadsheet applications
http://www.bom.gov.au/fwo/IDN60701/IDN60701.94995.axf

JavaScript Object Notation format (JSON) in row-major order
http://www.bom.gov.au/fwo/IDN60701/IDN60701.94995.json